Kasterlee, Belgium
Current Conditions -  °F | °C
As of 11:25 AM on Friday 31 Oct 2014 (Local Time) from EBDT Reporting Station
Broken Clouds Broken Clouds  
Wind Chill: 61°   Ceiling: 22000
Heat Index: 61°   Visibility: 6mi
Dew Point: 54°   Wind: 6mph
Humidity: 77%   Direction: 190°S
Pressure: 30.21"   Gusts: NA
Location:  51.24°N, 4.97°E
Report Text: EBDT 311025Z 19005KT 9999 FEW100 BKN220 16/12 Q1023 BLU BLU
Loading
Personal Weather Stations






























Interactive Weather Map
Tropical Storm Tracking
New forecast layout! Learn more

10-Day Weather Forecast

Advertisements
Track Severe Weather on mobile